sensor_id;sensor_type;location;lat;lon;timestamp;P1;durP1;ratioP1;P2;durP2;ratioP2
26977;SDS011;56314;48.088;11.642;2023-06-10T00:02:10;7.72;;;6.50;;
26977;SDS011;56314;48.088;11.642;2023-06-10T00:04:35;7.70;;;5.80;;
26977;SDS011;56314;48.088;11.642;2023-06-10T00:07:02;7.90;;;5.72;;
26977;SDS011;56314;48.088;11.642;2023-06-10T00:09:35;7.72;;;6.03;;
26977;SDS011;56314;48.088;11.642;2023-06-10T00:12:03;7.32;;;5.85;;
26977;SDS011;56314;48.088;11.642;2023-06-10T00:14:32;6.43;;;5.80;;
26977;SDS011;56314;48.088;11.642;2023-06-10T00:16:58;6.70;;;6.05;;
26977;SDS011;56314;48.088;11.642;2023-06-10T00:19:24;8.68;;;6.32;;
26977;SDS011;56314;48.088;11.642;2023-06-10T00:21:51;6.43;;;5.40;;
26977;SDS011;56314;48.088;11.642;2023-06-10T00:24:17;7.82;;;5.93;;
26977;SDS011;56314;48.088;11.642;2023-06-10T00:26:43;8.70;;;5.82;;
26977;SDS011;56314;48.088;11.642;2023-06-10T00:29:08;7.20;;;6.07;;
26977;SDS011;56314;48.088;11.642;2023-06-10T00:31:34;8.70;;;5.25;;
26977;SDS011;56314;48.088;11.642;2023-06-10T00:34:00;6.90;;;5.78;;
26977;SDS011;56314;48.088;11.642;2023-06-10T00:36:26;7.78;;;6.25;;
26977;SDS011;56314;48.088;11.642;2023-06-10T00:38:51;7.80;;;5.90;;
26977;SDS011;56314;48.088;11.642;2023-06-10T00:41:17;10.25;;;6.03;;
26977;SDS011;56314;48.088;11.642;2023-06-10T00:43:42;7.47;;;6.25;;
26977;SDS011;56314;48.088;11.642;2023-06-10T00:46:08;8.18;;;6.15;;
26977;SDS011;56314;48.088;11.642;2023-06-10T00:48:34;7.00;;;5.75;;
26977;SDS011;56314;48.088;11.642;2023-06-10T00:51:00;7.78;;;6.30;;
26977;SDS011;56314;48.088;11.642;2023-06-10T00:53:26;6.85;;;6.15;;
26977;SDS011;56314;48.088;11.642;2023-06-10T00:55:53;7.57;;;6.03;;
26977;SDS011;56314;48.088;11.642;2023-06-10T00:58:18;6.13;;;5.53;;
26977;SDS011;56314;48.088;11.642;2023-06-10T01:00:44;7.18;;;5.68;;
26977;SDS011;56314;48.088;11.642;2023-06-10T01:03:10;10.32;;;6.03;;
26977;SDS011;56314;48.088;11.642;2023-06-10T01:05:37;7.30;;;5.50;;
26977;SDS011;56314;48.088;11.642;2023-06-10T01:08:05;8.50;;;5.72;;
26977;SDS011;56314;48.088;11.642;2023-06-10T01:10:38;9.70;;;5.55;;
26977;SDS011;56314;48.088;11.642;2023-06-10T01:13:09;6.75;;;5.78;;
26977;SDS011;56314;48.088;11.642;2023-06-10T01:15:37;8.45;;;6.65;;
26977;SDS011;56314;48.088;11.642;2023-06-10T01:18:04;9.95;;;5.25;;
26977;SDS011;56314;48.088;11.642;2023-06-10T01:20:33;8.02;;;6.38;;
26977;SDS011;56314;48.088;11.642;2023-06-10T01:23:00;6.40;;;5.32;;
26977;SDS011;56314;48.088;11.642;2023-06-10T01:25:26;5.95;;;5.35;;
26977;SDS011;56314;48.088;11.642;2023-06-10T01:27:54;7.22;;;5.88;;
26977;SDS011;56314;48.088;11.642;2023-06-10T01:30:26;9.38;;;6.13;;
26977;SDS011;56314;48.088;11.642;2023-06-10T01:32:54;7.45;;;5.65;;
26977;SDS011;56314;48.088;11.642;2023-06-10T01:35:20;7.13;;;6.43;;
26977;SDS011;56314;48.088;11.642;2023-06-10T01:37:50;7.07;;;5.53;;
26977;SDS011;56314;48.088;11.642;2023-06-10T01:40:18;6.40;;;5.38;;
26977;SDS011;56314;48.088;11.642;2023-06-10T01:42:44;8.55;;;6.07;;
26977;SDS011;56314;48.088;11.642;2023-06-10T01:45:10;7.97;;;6.47;;
26977;SDS011;56314;48.088;11.642;2023-06-10T01:47:35;7.95;;;6.38;;
26977;SDS011;56314;48.088;11.642;2023-06-10T01:50:00;7.85;;;6.22;;
26977;SDS011;56314;48.088;11.642;2023-06-10T01:52:26;10.32;;;7.28;;
26977;SDS011;56314;48.088;11.642;2023-06-10T01:54:51;7.88;;;6.90;;
26977;SDS011;56314;48.088;11.642;2023-06-10T01:57:18;8.85;;;6.80;;
26977;SDS011;56314;48.088;11.642;2023-06-10T01:59:43;9.60;;;6.45;;
26977;SDS011;56314;48.088;11.642;2023-06-10T02:02:10;8.63;;;7.07;;
26977;SDS011;56314;48.088;11.642;2023-06-10T02:04:36;8.02;;;6.05;;
26977;SDS011;56314;48.088;11.642;2023-06-10T02:07:01;8.25;;;6.82;;
26977;SDS011;56314;48.088;11.642;2023-06-10T02:09:29;9.18;;;6.38;;
26977;SDS011;56314;48.088;11.642;2023-06-10T02:12:00;7.68;;;6.72;;
26977;SDS011;56314;48.088;11.642;2023-06-10T02:14:26;8.48;;;6.22;;
26977;SDS011;56314;48.088;11.642;2023-06-10T02:16:51;8.65;;;6.60;;
26977;SDS011;56314;48.088;11.642;2023-06-10T02:19:21;7.47;;;6.28;;
26977;SDS011;56314;48.088;11.642;2023-06-10T02:21:47;6.65;;;5.90;;
26977;SDS011;56314;48.088;11.642;2023-06-10T02:24:13;10.30;;;6.80;;
26977;SDS011;56314;48.088;11.642;2023-06-10T02:26:38;7.63;;;6.68;;
26977;SDS011;56314;48.088;11.642;2023-06-10T02:29:03;8.98;;;6.68;;
26977;SDS011;56314;48.088;11.642;2023-06-10T02:31:29;7.20;;;6.45;;
26977;SDS011;56314;48.088;11.642;2023-06-10T02:33:54;7.78;;;6.82;;
26977;SDS011;56314;48.088;11.642;2023-06-10T02:36:20;7.57;;;6.38;;
26977;SDS011;56314;48.088;11.642;2023-06-10T02:38:46;8.43;;;6.90;;
26977;SDS011;56314;48.088;11.642;2023-06-10T02:41:12;8.70;;;6.72;;
26977;SDS011;56314;48.088;11.642;2023-06-10T02:43:37;7.80;;;6.38;;
26977;SDS011;56314;48.088;11.642;2023-06-10T02:46:02;7.78;;;6.60;;
26977;SDS011;56314;48.088;11.642;2023-06-10T02:48:28;9.07;;;6.90;;
26977;SDS011;56314;48.088;11.642;2023-06-10T02:50:53;8.82;;;7.00;;
26977;SDS011;56314;48.088;11.642;2023-06-10T02:53:20;6.72;;;6.13;;
26977;SDS011;56314;48.088;11.642;2023-06-10T02:55:46;8.82;;;6.15;;
26977;SDS011;56314;48.088;11.642;2023-06-10T02:58:11;9.45;;;7.18;;
26977;SDS011;56314;48.088;11.642;2023-06-10T03:00:36;8.32;;;6.63;;
26977;SDS011;56314;48.088;11.642;2023-06-10T03:03:02;8.57;;;6.80;;
26977;SDS011;56314;48.088;11.642;2023-06-10T03:05:29;8.48;;;6.90;;
26977;SDS011;56314;48.088;11.642;2023-06-10T03:07:54;10.10;;;7.88;;
26977;SDS011;56314;48.088;11.642;2023-06-10T03:10:20;11.35;;;7.35;;
26977;SDS011;56314;48.088;11.642;2023-06-10T03:12:45;9.85;;;6.78;;
26977;SDS011;56314;48.088;11.642;2023-06-10T03:15:11;9.43;;;7.13;;
26977;SDS011;56314;48.088;11.642;2023-06-10T03:17:36;8.07;;;7.18;;
26977;SDS011;56314;48.088;11.642;2023-06-10T03:20:02;9.40;;;7.45;;
26977;SDS011;56314;48.088;11.642;2023-06-10T03:22:30;8.57;;;7.18;;
26977;SDS011;56314;48.088;11.642;2023-06-10T03:24:55;11.15;;;8.05;;
26977;SDS011;56314;48.088;11.642;2023-06-10T03:27:22;9.80;;;7.50;;
26977;SDS011;56314;48.088;11.642;2023-06-10T03:29:47;10.38;;;8.05;;
26977;SDS011;56314;48.088;11.642;2023-06-10T03:32:12;8.35;;;7.50;;
26977;SDS011;56314;48.088;11.642;2023-06-10T03:34:38;9.68;;;7.95;;
26977;SDS011;56314;48.088;11.642;2023-06-10T03:37:03;10.32;;;7.55;;
26977;SDS011;56314;48.088;11.642;2023-06-10T03:39:29;8.93;;;7.35;;
26977;SDS011;56314;48.088;11.642;2023-06-10T03:41:55;10.65;;;7.68;;
26977;SDS011;56314;48.088;11.642;2023-06-10T03:44:22;10.52;;;7.15;;
26977;SDS011;56314;48.088;11.642;2023-06-10T03:46:47;10.18;;;8.25;;
26977;SDS011;56314;48.088;11.642;2023-06-10T03:49:12;8.93;;;7.07;;
26977;SDS011;56314;48.088;11.642;2023-06-10T03:51:40;8.63;;;7.30;;
26977;SDS011;56314;48.088;11.642;2023-06-10T03:54:05;9.18;;;7.80;;
26977;SDS011;56314;48.088;11.642;2023-06-10T03:56:31;9.32;;;7.22;;
26977;SDS011;56314;48.088;11.642;2023-06-10T03:58:56;8.65;;;6.90;;
26977;SDS011;56314;48.088;11.642;2023-06-10T04:01:21;8.00;;;6.50;;
26977;SDS011;56314;48.088;11.642;2023-06-10T04:03:48;9.25;;;6.63;;
26977;SDS011;56314;48.088;11.642;2023-06-10T04:06:16;7.85;;;6.85;;
26977;SDS011;56314;48.088;11.642;2023-06-10T04:08:41;9.90;;;7.82;;
26977;SDS011;56314;48.088;11.642;2023-06-10T04:11:07;8.10;;;7.25;;
26977;SDS011;56314;48.088;11.642;2023-06-10T04:13:33;12.77;;;8.70;;
26977;SDS011;56314;48.088;11.642;2023-06-10T04:15:58;8.82;;;7.35;;
26977;SDS011;56314;48.088;11.642;2023-06-10T04:18:24;8.45;;;7.35;;
26977;SDS011;56314;48.088;11.642;2023-06-10T04:20:50;8.43;;;7.22;;
26977;SDS011;56314;48.088;11.642;2023-06-10T04:23:16;8.15;;;7.18;;
26977;SDS011;56314;48.088;11.642;2023-06-10T04:25:41;9.43;;;7.32;;
26977;SDS011;56314;48.088;11.642;2023-06-10T04:28:06;8.35;;;7.05;;
26977;SDS011;56314;48.088;11.642;2023-06-10T04:30:32;9.40;;;7.75;;
26977;SDS011;56314;48.088;11.642;2023-06-10T04:32:58;7.93;;;7.13;;
26977;SDS011;56314;48.088;11.642;2023-06-10T04:35:23;9.02;;;7.13;;
26977;SDS011;56314;48.088;11.642;2023-06-10T04:37:51;8.40;;;6.82;;
26977;SDS011;56314;48.088;11.642;2023-06-10T04:40:17;9.00;;;8.07;;
26977;SDS011;56314;48.088;11.642;2023-06-10T04:42:42;8.65;;;7.07;;
26977;SDS011;56314;48.088;11.642;2023-06-10T04:45:08;9.20;;;7.38;;
26977;SDS011;56314;48.088;11.642;2023-06-10T04:47:34;12.40;;;7.55;;
26977;SDS011;56314;48.088;11.642;2023-06-10T04:50:00;9.68;;;8.05;;
26977;SDS011;56314;48.088;11.642;2023-06-10T04:52:25;10.13;;;8.52;;
26977;SDS011;56314;48.088;11.642;2023-06-10T04:54:51;10.32;;;8.18;;
26977;SDS011;56314;48.088;11.642;2023-06-10T04:57:17;10.30;;;8.10;;
26977;SDS011;56314;48.088;11.642;2023-06-10T04:59:42;11.05;;;8.18;;
26977;SDS011;56314;48.088;11.642;2023-06-10T05:02:08;8.45;;;7.55;;
26977;SDS011;56314;48.088;11.642;2023-06-10T05:04:33;8.38;;;7.13;;
26977;SDS011;56314;48.088;11.642;2023-06-10T05:06:58;8.13;;;6.80;;
26977;SDS011;56314;48.088;11.642;2023-06-10T05:09:24;8.18;;;6.93;;
26977;SDS011;56314;48.088;11.642;2023-06-10T05:11:49;10.85;;;6.65;;
26977;SDS011;56314;48.088;11.642;2023-06-10T05:14:14;7.57;;;6.45;;
26977;SDS011;56314;48.088;11.642;2023-06-10T05:16:41;7.25;;;6.22;;
26977;SDS011;56314;48.088;11.642;2023-06-10T05:19:08;6.90;;;6.15;;
26977;SDS011;56314;48.088;11.642;2023-06-10T05:21:33;6.93;;;5.95;;
26977;SDS011;56314;48.088;11.642;2023-06-10T05:23:58;6.88;;;5.80;;
26977;SDS011;56314;48.088;11.642;2023-06-10T05:26:24;7.03;;;6.35;;
26977;SDS011;56314;48.088;11.642;2023-06-10T05:28:50;8.25;;;6.25;;
26977;SDS011;56314;48.088;11.642;2023-06-10T05:31:15;6.80;;;6.10;;
26977;SDS011;56314;48.088;11.642;2023-06-10T05:33:40;7.07;;;6.37;;
26977;SDS011;56314;48.088;11.642;2023-06-10T05:36:06;7.47;;;6.30;;
26977;SDS011;56314;48.088;11.642;2023-06-10T05:38:31;9.90;;;6.50;;
26977;SDS011;56314;48.088;11.642;2023-06-10T05:40:56;7.60;;;6.80;;
26977;SDS011;56314;48.088;11.642;2023-06-10T05:43:23;8.25;;;6.90;;
26977;SDS011;56314;48.088;11.642;2023-06-10T05:45:49;6.88;;;6.05;;
26977;SDS011;56314;48.088;11.642;2023-06-10T05:48:14;8.48;;;6.40;;
26977;SDS011;56314;48.088;11.642;2023-06-10T05:50:39;6.93;;;6.32;;
26977;SDS011;56314;48.088;11.642;2023-06-10T05:53:07;7.05;;;5.78;;
26977;SDS011;56314;48.088;11.642;2023-06-10T05:55:39;6.88;;;6.18;;
26977;SDS011;56314;48.088;11.642;2023-06-10T05:58:05;6.75;;;6.15;;
26977;SDS011;56314;48.088;11.642;2023-06-10T06:00:31;7.32;;;6.30;;
26977;SDS011;56314;48.088;11.642;2023-06-10T06:02:56;6.77;;;6.17;;
26977;SDS011;56314;48.088;11.642;2023-06-10T06:05:22;8.25;;;6.40;;
26977;SDS011;56314;48.088;11.642;2023-06-10T06:07:47;7.93;;;6.13;;
26977;SDS011;56314;48.088;11.642;2023-06-10T06:10:13;6.43;;;5.82;;
26977;SDS011;56314;48.088;11.642;2023-06-10T06:12:38;6.80;;;6.18;;
26977;SDS011;56314;48.088;11.642;2023-06-10T06:15:04;6.40;;;5.83;;
26977;SDS011;56314;48.088;11.642;2023-06-10T06:17:29;6.10;;;5.50;;
26977;SDS011;56314;48.088;11.642;2023-06-10T06:19:55;6.57;;;5.67;;
26977;SDS011;56314;48.088;11.642;2023-06-10T06:22:20;6.33;;;5.73;;
26977;SDS011;56314;48.088;11.642;2023-06-10T06:24:47;7.10;;;6.40;;
26977;SDS011;56314;48.088;11.642;2023-06-10T06:27:12;6.15;;;5.50;;
26977;SDS011;56314;48.088;11.642;2023-06-10T06:29:38;5.57;;;5.07;;
26977;SDS011;56314;48.088;11.642;2023-06-10T06:32:03;6.30;;;5.70;;
26977;SDS011;56314;48.088;11.642;2023-06-10T06:34:29;6.15;;;5.55;;
26977;SDS011;56314;48.088;11.642;2023-06-10T06:36:54;6.88;;;6.22;;
26977;SDS011;56314;48.088;11.642;2023-06-10T06:39:19;6.37;;;5.70;;
26977;SDS011;56314;48.088;11.642;2023-06-10T06:41:45;6.27;;;5.43;;
26977;SDS011;56314;48.088;11.642;2023-06-10T06:44:10;6.50;;;5.55;;
26977;SDS011;56314;48.088;11.642;2023-06-10T06:46:35;6.33;;;5.73;;
26977;SDS011;56314;48.088;11.642;2023-06-10T06:49:00;7.50;;;6.10;;
26977;SDS011;56314;48.088;11.642;2023-06-10T06:51:26;6.60;;;5.50;;
26977;SDS011;56314;48.088;11.642;2023-06-10T06:53:51;6.18;;;5.57;;
26977;SDS011;56314;48.088;11.642;2023-06-10T06:56:19;6.78;;;5.57;;
26977;SDS011;56314;48.088;11.642;2023-06-10T06:58:46;6.30;;;5.68;;
26977;SDS011;56314;48.088;11.642;2023-06-10T07:01:11;5.53;;;4.95;;
26977;SDS011;56314;48.088;11.642;2023-06-10T07:03:37;6.15;;;5.55;;
26977;SDS011;56314;48.088;11.642;2023-06-10T07:06:02;8.07;;;5.72;;
26977;SDS011;56314;48.088;11.642;2023-06-10T07:08:27;5.40;;;4.90;;
26977;SDS011;56314;48.088;11.642;2023-06-10T07:10:53;6.50;;;5.38;;
26977;SDS011;56314;48.088;11.642;2023-06-10T07:13:19;5.97;;;5.32;;
26977;SDS011;56314;48.088;11.642;2023-06-10T07:15:45;6.00;;;5.40;;
26977;SDS011;56314;48.088;11.642;2023-06-10T07:18:10;5.78;;;5.22;;
26977;SDS011;56314;48.088;11.642;2023-06-10T07:20:35;5.35;;;4.90;;
26977;SDS011;56314;48.088;11.642;2023-06-10T07:23:01;5.70;;;5.20;;
26977;SDS011;56314;48.088;11.642;2023-06-10T07:25:26;5.40;;;4.90;;
26977;SDS011;56314;48.088;11.642;2023-06-10T07:27:51;5.30;;;4.45;;
26977;SDS011;56314;48.088;11.642;2023-06-10T07:30:17;7.75;;;5.10;;
26977;SDS011;56314;48.088;11.642;2023-06-10T07:32:42;5.85;;;5.25;;
26977;SDS011;56314;48.088;11.642;2023-06-10T07:35:09;6.10;;;5.50;;
26977;SDS011;56314;48.088;11.642;2023-06-10T07:37:38;7.57;;;5.63;;
26977;SDS011;56314;48.088;11.642;2023-06-10T07:40:03;6.43;;;5.07;;
26977;SDS011;56314;48.088;11.642;2023-06-10T07:42:30;5.57;;;5.07;;
26977;SDS011;56314;48.088;11.642;2023-06-10T07:44:57;5.35;;;4.85;;
26977;SDS011;56314;48.088;11.642;2023-06-10T07:47:22;6.03;;;5.50;;
26977;SDS011;56314;48.088;11.642;2023-06-10T07:49:47;5.43;;;4.93;;
26977;SDS011;56314;48.088;11.642;2023-06-10T07:52:13;5.23;;;4.73;;
26977;SDS011;56314;48.088;11.642;2023-06-10T07:54:38;5.10;;;4.60;;
26977;SDS011;56314;48.088;11.642;2023-06-10T07:57:03;5.07;;;4.57;;
26977;SDS011;56314;48.088;11.642;2023-06-10T07:59:29;5.93;;;5.43;;
26977;SDS011;56314;48.088;11.642;2023-06-10T08:01:55;4.82;;;4.43;;
26977;SDS011;56314;48.088;11.642;2023-06-10T08:04:20;4.93;;;4.43;;
26977;SDS011;56314;48.088;11.642;2023-06-10T08:06:45;4.40;;;4.00;;
26977;SDS011;56314;48.088;11.642;2023-06-10T08:09:11;3.43;;;3.13;;
26977;SDS011;56314;48.088;11.642;2023-06-10T08:11:36;3.90;;;3.60;;
26977;SDS011;56314;48.088;11.642;2023-06-10T08:14:01;4.20;;;3.80;;
26977;SDS011;56314;48.088;11.642;2023-06-10T08:16:27;3.97;;;3.58;;
26977;SDS011;56314;48.088;11.642;2023-06-10T08:18:52;4.50;;;4.10;;
26977;SDS011;56314;48.088;11.642;2023-06-10T08:21:18;3.97;;;3.67;;
26977;SDS011;56314;48.088;11.642;2023-06-10T08:23:43;4.57;;;4.18;;
26977;SDS011;56314;48.088;11.642;2023-06-10T08:26:09;5.28;;;3.95;;
26977;SDS011;56314;48.088;11.642;2023-06-10T08:28:34;8.05;;;4.05;;
26977;SDS011;56314;48.088;11.642;2023-06-10T08:31:00;4.03;;;3.63;;
26977;SDS011;56314;48.088;11.642;2023-06-10T08:33:25;4.32;;;3.92;;
26977;SDS011;56314;48.088;11.642;2023-06-10T08:35:50;4.03;;;3.72;;
26977;SDS011;56314;48.088;11.642;2023-06-10T08:38:16;3.97;;;3.67;;
26977;SDS011;56314;48.088;11.642;2023-06-10T08:40:41;4.22;;;3.88;;
26977;SDS011;56314;48.088;11.642;2023-06-10T08:43:07;3.40;;;3.10;;
26977;SDS011;56314;48.088;11.642;2023-06-10T08:45:36;3.78;;;3.45;;
26977;SDS011;56314;48.088;11.642;2023-06-10T08:48:05;4.07;;;3.72;;
26977;SDS011;56314;48.088;11.642;2023-06-10T08:50:37;3.83;;;3.53;;
26977;SDS011;56314;48.088;11.642;2023-06-10T08:53:06;3.65;;;3.35;;
26977;SDS011;56314;48.088;11.642;2023-06-10T08:55:32;3.42;;;3.13;;
26977;SDS011;56314;48.088;11.642;2023-06-10T08:58:02;3.50;;;3.20;;
26977;SDS011;56314;48.088;11.642;2023-06-10T09:00:28;3.17;;;2.88;;
26977;SDS011;56314;48.088;11.642;2023-06-10T09:02:55;3.95;;;3.53;;
26977;SDS011;56314;48.088;11.642;2023-06-10T09:05:21;2.90;;;2.70;;
26977;SDS011;56314;48.088;11.642;2023-06-10T09:07:51;3.47;;;3.17;;
26977;SDS011;56314;48.088;11.642;2023-06-10T09:10:17;2.92;;;2.63;;
26977;SDS011;56314;48.088;11.642;2023-06-10T09:12:43;3.30;;;3.05;;
26977;SDS011;56314;48.088;11.642;2023-06-10T09:15:08;3.25;;;2.95;;
26977;SDS011;56314;48.088;11.642;2023-06-10T09:17:34;3.45;;;2.88;;
26977;SDS011;56314;48.088;11.642;2023-06-10T09:20:01;3.20;;;2.90;;
26977;SDS011;56314;48.088;11.642;2023-06-10T09:22:27;3.35;;;3.05;;
26977;SDS011;56314;48.088;11.642;2023-06-10T09:27:33;2.90;;;2.65;;
26977;SDS011;56314;48.088;11.642;2023-06-10T09:30:10;3.85;;;3.50;;
26977;SDS011;56314;48.088;11.642;2023-06-10T09:32:39;4.00;;;3.20;;
26977;SDS011;56314;48.088;11.642;2023-06-10T09:35:09;4.25;;;3.70;;
26977;SDS011;56314;48.088;11.642;2023-06-10T09:37:37;3.63;;;3.30;;
26977;SDS011;56314;48.088;11.642;2023-06-10T09:40:04;4.03;;;3.63;;
26977;SDS011;56314;48.088;11.642;2023-06-10T09:42:33;4.78;;;3.78;;
26977;SDS011;56314;48.088;11.642;2023-06-10T09:45:04;3.75;;;3.42;;
26977;SDS011;56314;48.088;11.642;2023-06-10T09:47:31;3.10;;;2.83;;
26977;SDS011;56314;48.088;11.642;2023-06-10T09:49:56;3.67;;;3.38;;
26977;SDS011;56314;48.088;11.642;2023-06-10T09:52:22;4.10;;;3.80;;
26977;SDS011;56314;48.088;11.642;2023-06-10T09:54:53;6.00;;;3.22;;
26977;SDS011;56314;48.088;11.642;2023-06-10T09:57:19;7.13;;;3.92;;
26977;SDS011;56314;48.088;11.642;2023-06-10T09:59:46;3.85;;;3.55;;
26977;SDS011;56314;48.088;11.642;2023-06-10T10:02:14;4.55;;;3.90;;
26977;SDS011;56314;48.088;11.642;2023-06-10T10:04:41;5.70;;;4.18;;
26977;SDS011;56314;48.088;11.642;2023-06-10T10:07:07;4.50;;;4.03;;
26977;SDS011;56314;48.088;11.642;2023-06-10T10:09:33;3.65;;;3.35;;
26977;SDS011;56314;48.088;11.642;2023-06-10T10:12:01;3.88;;;3.58;;
26977;SDS011;56314;48.088;11.642;2023-06-10T10:14:28;3.65;;;3.35;;
26977;SDS011;56314;48.088;11.642;2023-06-10T10:16:56;3.72;;;3.42;;
26977;SDS011;56314;48.088;11.642;2023-06-10T10:19:25;3.33;;;3.03;;
26977;SDS011;56314;48.088;11.642;2023-06-10T10:21:54;3.58;;;3.28;;
26977;SDS011;56314;48.088;11.642;2023-06-10T10:24:29;4.20;;;3.80;;
26977;SDS011;56314;48.088;11.642;2023-06-10T10:26:59;3.72;;;3.42;;
26977;SDS011;56314;48.088;11.642;2023-06-10T10:29:35;4.38;;;3.58;;
26977;SDS011;56314;48.088;11.642;2023-06-10T10:32:03;3.08;;;2.80;;
26977;SDS011;56314;48.088;11.642;2023-06-10T10:37:14;3.50;;;3.13;;
26977;SDS011;56314;48.088;11.642;2023-06-10T10:39:39;3.20;;;2.80;;
26977;SDS011;56314;48.088;11.642;2023-06-10T10:42:05;3.75;;;3.42;;
26977;SDS011;56314;48.088;11.642;2023-06-10T10:44:35;3.85;;;3.20;;
26977;SDS011;56314;48.088;11.642;2023-06-10T10:47:02;3.22;;;2.92;;
26977;SDS011;56314;48.088;11.642;2023-06-10T10:49:32;3.65;;;3.35;;
26977;SDS011;56314;48.088;11.642;2023-06-10T10:52:01;3.67;;;3.05;;
26977;SDS011;56314;48.088;11.642;2023-06-10T10:54:33;4.07;;;3.53;;
26977;SDS011;56314;48.088;11.642;2023-06-10T11:04:57;2.88;;;2.67;;
26977;SDS011;56314;48.088;11.642;2023-06-10T11:07:26;3.42;;;3.13;;
26977;SDS011;56314;48.088;11.642;2023-06-10T11:10:08;3.00;;;2.70;;
26977;SDS011;56314;48.088;11.642;2023-06-10T11:12:41;3.13;;;2.83;;
26977;SDS011;56314;48.088;11.642;2023-06-10T11:15:27;3.28;;;2.92;;
26977;SDS011;56314;48.088;11.642;2023-06-10T11:18:07;3.70;;;3.40;;
26977;SDS011;56314;48.088;11.642;2023-06-10T11:26:08;3.28;;;2.97;;
26977;SDS011;56314;48.088;11.642;2023-06-10T11:31:20;2.90;;;2.70;;
26977;SDS011;56314;48.088;11.642;2023-06-10T11:33:53;2.40;;;2.20;;
26977;SDS011;56314;48.088;11.642;2023-06-10T11:36:18;3.10;;;2.40;;
26977;SDS011;56314;48.088;11.642;2023-06-10T11:38:43;3.22;;;2.47;;
26977;SDS011;56314;48.088;11.642;2023-06-10T11:41:10;2.88;;;2.58;;
26977;SDS011;56314;48.088;11.642;2023-06-10T11:43:36;3.47;;;2.35;;
26977;SDS011;56314;48.088;11.642;2023-06-10T11:46:02;2.30;;;2.10;;
26977;SDS011;56314;48.088;11.642;2023-06-10T11:48:27;2.22;;;2.10;;
26977;SDS011;56314;48.088;11.642;2023-06-10T11:50:56;3.13;;;2.63;;
26977;SDS011;56314;48.088;11.642;2023-06-10T11:53:21;3.10;;;2.78;;
26977;SDS011;56314;48.088;11.642;2023-06-10T11:55:47;2.78;;;2.50;;
26977;SDS011;56314;48.088;11.642;2023-06-10T11:58:19;2.95;;;2.38;;
26977;SDS011;56314;48.088;11.642;2023-06-10T12:00:52;2.60;;;2.40;;
26977;SDS011;56314;48.088;11.642;2023-06-10T12:03:19;2.47;;;2.25;;
26977;SDS011;56314;48.088;11.642;2023-06-10T12:05:57;2.60;;;2.00;;
26977;SDS011;56314;48.088;11.642;2023-06-10T12:08:24;2.03;;;1.90;;
26977;SDS011;56314;48.088;11.642;2023-06-10T12:10:50;2.95;;;2.58;;
26977;SDS011;56314;48.088;11.642;2023-06-10T12:13:16;3.15;;;2.65;;
26977;SDS011;56314;48.088;11.642;2023-06-10T12:15:44;2.28;;;2.08;;
26977;SDS011;56314;48.088;11.642;2023-06-10T12:18:20;2.33;;;2.13;;
26977;SDS011;56314;48.088;11.642;2023-06-10T12:20:46;2.35;;;2.15;;
26977;SDS011;56314;48.088;11.642;2023-06-10T12:23:13;2.35;;;2.15;;
26977;SDS011;56314;48.088;11.642;2023-06-10T12:25:39;2.80;;;2.20;;
26977;SDS011;56314;48.088;11.642;2023-06-10T12:28:16;3.40;;;1.70;;
26977;SDS011;56314;48.088;11.642;2023-06-10T12:30:42;2.38;;;2.17;;
26977;SDS011;56314;48.088;11.642;2023-06-10T12:33:15;2.05;;;1.90;;
26977;SDS011;56314;48.088;11.642;2023-06-10T12:35:50;2.25;;;1.95;;
26977;SDS011;56314;48.088;11.642;2023-06-10T12:38:23;2.10;;;2.00;;
26977;SDS011;56314;48.088;11.642;2023-06-10T12:40:54;2.13;;;2.00;;
26977;SDS011;56314;48.088;11.642;2023-06-10T12:43:21;2.22;;;2.03;;
26977;SDS011;56314;48.088;11.642;2023-06-10T12:45:48;3.40;;;2.10;;
26977;SDS011;56314;48.088;11.642;2023-06-10T12:50:44;3.70;;;2.70;;
26977;SDS011;56314;48.088;11.642;2023-06-10T12:53:11;2.95;;;2.70;;
26977;SDS011;56314;48.088;11.642;2023-06-10T12:55:37;2.83;;;2.53;;
26977;SDS011;56314;48.088;11.642;2023-06-10T12:58:03;2.92;;;2.72;;
26977;SDS011;56314;48.088;11.642;2023-06-10T13:00:28;3.42;;;2.75;;
26977;SDS011;56314;48.088;11.642;2023-06-10T13:02:57;4.35;;;2.70;;
26977;SDS011;56314;48.088;11.642;2023-06-10T13:05:26;3.03;;;2.75;;
26977;SDS011;56314;48.088;11.642;2023-06-10T13:07:51;2.83;;;2.63;;
26977;SDS011;56314;48.088;11.642;2023-06-10T13:10:16;3.40;;;3.10;;
26977;SDS011;56314;48.088;11.642;2023-06-10T13:12:43;3.47;;;3.17;;
26977;SDS011;56314;48.088;11.642;2023-06-10T13:15:09;3.80;;;3.50;;
26977;SDS011;56314;48.088;11.642;2023-06-10T13:17:35;4.70;;;3.38;;
26977;SDS011;56314;48.088;11.642;2023-06-10T13:20:03;4.05;;;2.97;;
26977;SDS011;56314;48.088;11.642;2023-06-10T13:22:32;2.97;;;2.72;;
26977;SDS011;56314;48.088;11.642;2023-06-10T13:24:58;4.93;;;3.22;;
26977;SDS011;56314;48.088;11.642;2023-06-10T13:27:24;4.28;;;3.42;;
26977;SDS011;56314;48.088;11.642;2023-06-10T13:29:50;3.55;;;3.15;;
26977;SDS011;56314;48.088;11.642;2023-06-10T13:32:15;3.42;;;3.10;;
26977;SDS011;56314;48.088;11.642;2023-06-10T13:34:40;3.20;;;3.00;;
26977;SDS011;56314;48.088;11.642;2023-06-10T13:37:06;4.53;;;3.35;;
26977;SDS011;56314;48.088;11.642;2023-06-10T13:39:31;3.53;;;3.22;;
26977;SDS011;56314;48.088;11.642;2023-06-10T13:41:57;5.18;;;2.90;;
26977;SDS011;56314;48.088;11.642;2023-06-10T13:44:22;3.03;;;2.83;;
26977;SDS011;56314;48.088;11.642;2023-06-10T13:46:47;4.00;;;3.10;;
26977;SDS011;56314;48.088;11.642;2023-06-10T13:49:13;2.45;;;2.25;;
26977;SDS011;56314;48.088;11.642;2023-06-10T13:51:38;5.40;;;2.65;;
26977;SDS011;56314;48.088;11.642;2023-06-10T13:54:03;3.90;;;2.95;;
26977;SDS011;56314;48.088;11.642;2023-06-10T13:56:29;2.35;;;2.17;;
26977;SDS011;56314;48.088;11.642;2023-06-10T13:58:55;2.88;;;2.58;;
26977;SDS011;56314;48.088;11.642;2023-06-10T14:01:20;3.60;;;2.75;;
26977;SDS011;56314;48.088;11.642;2023-06-10T14:03:46;3.70;;;2.60;;
26977;SDS011;56314;48.088;11.642;2023-06-10T14:06:11;2.80;;;2.60;;
26977;SDS011;56314;48.088;11.642;2023-06-10T14:08:40;2.75;;;2.50;;
26977;SDS011;56314;48.088;11.642;2023-06-10T14:11:05;2.55;;;2.35;;
26977;SDS011;56314;48.088;11.642;2023-06-10T14:13:31;3.28;;;2.47;;
26977;SDS011;56314;48.088;11.642;2023-06-10T14:15:56;3.33;;;2.70;;
26977;SDS011;56314;48.088;11.642;2023-06-10T14:18:22;2.75;;;2.50;;
26977;SDS011;56314;48.088;11.642;2023-06-10T14:20:48;2.50;;;2.30;;
26977;SDS011;56314;48.088;11.642;2023-06-10T14:23:13;2.92;;;2.67;;
26977;SDS011;56314;48.088;11.642;2023-06-10T14:25:38;3.13;;;2.83;;
26977;SDS011;56314;48.088;11.642;2023-06-10T14:28:04;2.40;;;2.20;;
26977;SDS011;56314;48.088;11.642;2023-06-10T14:30:29;3.95;;;3.20;;
26977;SDS011;56314;48.088;11.642;2023-06-10T14:32:54;4.43;;;2.83;;
26977;SDS011;56314;48.088;11.642;2023-06-10T14:35:20;3.10;;;2.80;;
26977;SDS011;56314;48.088;11.642;2023-06-10T14:37:46;3.03;;;2.72;;
26977;SDS011;56314;48.088;11.642;2023-06-10T14:40:11;3.28;;;2.97;;
26977;SDS011;56314;48.088;11.642;2023-06-10T14:42:37;2.90;;;2.60;;
26977;SDS011;56314;48.088;11.642;2023-06-10T14:45:02;3.00;;;2.70;;
26977;SDS011;56314;48.088;11.642;2023-06-10T14:47:28;3.20;;;2.90;;
26977;SDS011;56314;48.088;11.642;2023-06-10T14:49:54;3.03;;;2.78;;
26977;SDS011;56314;48.088;11.642;2023-06-10T14:52:19;3.22;;;2.80;;
26977;SDS011;56314;48.088;11.642;2023-06-10T14:54:44;4.47;;;3.17;;